createdAt,value
2018-11-25T00:00:40.007Z,0.00
2018-11-25T00:01:40.214Z,0.00
2018-11-25T00:02:40.434Z,0.00
2018-11-25T00:03:40.021Z,0.00
2018-11-25T00:06:02.600Z,0.00
2018-11-25T00:07:02.473Z,0.00
2018-11-25T00:08:02.374Z,0.00
2018-11-25T00:09:02.633Z,0.00
2018-11-25T00:10:02.606Z,0.00
2018-11-25T00:11:02.400Z,0.00
2018-11-25T00:12:02.585Z,0.00
2018-11-25T00:13:02.581Z,0.00
2018-11-25T00:14:02.421Z,0.00
2018-11-25T00:15:02.333Z,0.00
2018-11-25T00:16:02.537Z,0.00
2018-11-25T00:17:02.446Z,0.00
2018-11-25T00:18:02.614Z,0.00
2018-11-25T00:19:02.251Z,0.00
2018-11-25T00:21:14.364Z,0.00
2018-11-25T00:22:13.949Z,0.00
2018-11-25T00:23:14.159Z,0.00
2018-11-25T00:24:14.063Z,0.00
2018-11-25T00:25:13.969Z,0.00
2018-11-25T00:26:13.864Z,0.00
2018-11-25T00:27:14.632Z,0.00
2018-11-25T00:28:13.992Z,0.00
2018-11-25T00:29:13.854Z,0.00
2018-11-25T00:30:14.109Z,0.00
2018-11-25T00:31:14.016Z,0.00
2018-11-25T00:32:14.237Z,0.00
2018-11-25T00:33:13.817Z,0.00
2018-11-25T00:34:14.055Z,0.00
2018-11-25T00:36:26.657Z,0.00
2018-11-25T00:37:26.348Z,0.00
2018-11-25T00:38:26.257Z,0.00
2018-11-25T00:39:26.172Z,0.00
2018-11-25T00:40:26.084Z,0.00
2018-11-25T00:41:26.288Z,0.00
2018-11-25T00:42:26.616Z,0.00
2018-11-25T00:43:26.098Z,0.00
2018-11-25T00:44:26.312Z,0.00
2018-11-25T00:45:26.505Z,0.00
2018-11-25T00:46:26.123Z,0.00
2018-11-25T00:47:26.021Z,0.00
2018-11-25T00:48:26.235Z,0.00
2018-11-25T00:49:26.137Z,0.00
2018-11-25T00:50:26.061Z,0.00
2018-11-25T00:52:38.487Z,0.00
2018-11-25T00:53:38.636Z,0.00
2018-11-25T00:54:38.263Z,0.00
2018-11-25T00:55:38.167Z,0.00
2018-11-25T00:56:38.371Z,0.00
2018-11-25T00:57:38.278Z,0.00
2018-11-25T00:58:38.500Z,0.00
2018-11-25T00:59:38.093Z,0.00
2018-11-25T01:00:38.308Z,0.00
2018-11-25T01:01:38.512Z,0.00
2018-11-25T01:02:38.635Z,0.00
2018-11-25T01:03:38.016Z,0.00
2018-11-25T01:04:38.536Z,0.00
2018-11-25T01:05:38.135Z,0.00
2018-11-25T01:07:51.657Z,0.00
2018-11-25T01:08:51.359Z,0.00
2018-11-25T01:09:51.271Z,0.00
2018-11-25T01:10:51.478Z,0.00
2018-11-25T01:11:51.646Z,0.00
2018-11-25T01:12:51.644Z,0.00
2018-11-25T01:13:51.498Z,0.00
2018-11-25T01:14:51.648Z,0.00
2018-11-25T01:15:51.313Z,0.00
2018-11-25T01:16:51.519Z,0.00
2018-11-25T01:17:51.659Z,0.00
2018-11-25T01:18:51.334Z,0.00
2018-11-25T01:19:51.680Z,0.00
2018-11-25T01:20:51.148Z,0.00
2018-11-25T01:23:03.684Z,0.00
2018-11-25T01:24:03.448Z,0.00
2018-11-25T01:25:03.661Z,0.00
2018-11-25T01:26:03.566Z,0.00
2018-11-25T01:27:03.667Z,0.00
2018-11-25T01:28:03.669Z,0.00
2018-11-25T01:29:03.679Z,0.00
2018-11-25T01:30:03.490Z,0.00
2018-11-25T01:31:03.394Z,0.00
2018-11-25T01:32:03.694Z,0.00
2018-11-25T01:33:03.673Z,0.00
2018-11-25T01:34:03.664Z,0.00
2018-11-25T01:35:03.632Z,0.00
2018-11-25T01:36:03.535Z,0.00
2018-11-25T01:38:15.732Z,0.00
2018-11-25T01:39:15.546Z,0.00
2018-11-25T01:40:15.703Z,0.00
2018-11-25T01:41:15.346Z,0.00
2018-11-25T01:42:15.277Z,0.00
2018-11-25T01:43:15.464Z,0.00
2018-11-25T01:44:15.374Z,0.00
2018-11-25T01:45:15.280Z,0.00
2018-11-25T01:46:15.687Z,0.00
2018-11-25T01:47:15.396Z,0.00
2018-11-25T01:48:15.295Z,0.00
2018-11-25T01:49:15.286Z,0.00
2018-11-25T01:50:15.419Z,0.00
2018-11-25T01:51:15.338Z,0.00
2018-11-25T01:52:15.539Z,0.00
2018-11-25T01:54:27.696Z,0.00
2018-11-25T01:55:27.541Z,0.00
2018-11-25T01:56:27.695Z,0.00
2018-11-25T01:57:27.345Z,0.00
2018-11-25T01:58:27.565Z,0.00
2018-11-25T01:59:27.465Z,0.00
2018-11-25T02:00:27.680Z,0.00
2018-11-25T02:01:27.276Z,0.00
2018-11-25T02:02:27.744Z,0.00
2018-11-25T02:03:28.079Z,0.00
2018-11-25T02:04:27.295Z,0.00
2018-11-25T02:05:27.511Z,0.00
2018-11-25T02:06:27.436Z,0.00
2018-11-25T02:07:27.342Z,0.00
2018-11-25T02:09:53.724Z,0.00
2018-11-25T02:10:53.707Z,0.00
2018-11-25T02:11:53.706Z,0.00
2018-11-25T02:12:53.589Z,0.00
2018-11-25T02:13:53.498Z,0.00
2018-11-25T02:14:53.708Z,0.00
2018-11-25T02:15:53.765Z,0.00
2018-11-25T02:16:53.528Z,0.00
2018-11-25T02:17:53.400Z,0.00
2018-11-25T02:18:53.612Z,0.00
2018-11-25T02:19:53.535Z,0.00
2018-11-25T02:20:53.440Z,0.00
2018-11-25T02:21:53.764Z,0.00
2018-11-25T02:22:53.561Z,0.00
2018-11-25T02:25:05.652Z,0.00
2018-11-25T02:26:05.720Z,0.00
2018-11-25T02:27:05.720Z,0.00
2018-11-25T02:28:05.381Z,0.00
2018-11-25T02:29:05.273Z,0.00
2018-11-25T02:30:05.490Z,0.00
2018-11-25T02:31:05.382Z,0.00
2018-11-25T02:32:05.604Z,0.00
2018-11-25T02:33:05.511Z,0.00
2018-11-25T02:34:05.413Z,0.00
2018-11-25T02:35:05.323Z,0.00
2018-11-25T02:36:05.224Z,0.00
2018-11-25T02:37:05.429Z,0.00
2018-11-25T02:38:05.636Z,0.00
2018-11-25T02:40:44.477Z,0.00
2018-11-25T02:41:43.467Z,0.00
2018-11-25T02:42:43.355Z,0.00
2018-11-25T02:43:43.739Z,0.00
2018-11-25T02:44:43.175Z,0.00
2018-11-25T02:45:44.003Z,0.00
2018-11-25T02:46:45.800Z,0.00
2018-11-25T02:47:43.819Z,0.00
2018-11-25T02:48:44.320Z,0.00
2018-11-25T02:49:44.245Z,0.00
2018-11-25T02:50:43.214Z,0.00
2018-11-25T02:51:43.107Z,0.00
2018-11-25T02:52:44.612Z,0.00
2018-11-25T02:53:43.229Z,0.00
2018-11-25T02:55:55.671Z,0.00
2018-11-25T02:56:55.544Z,0.00
2018-11-25T02:57:55.485Z,0.00
2018-11-25T02:58:55.348Z,0.00
2018-11-25T02:59:55.253Z,0.00
2018-11-25T03:00:56.077Z,0.00
2018-11-25T03:01:55.368Z,0.00
2018-11-25T03:02:55.274Z,0.00
2018-11-25T03:03:55.796Z,0.00
2018-11-25T03:04:55.392Z,0.00
2018-11-25T03:05:55.818Z,0.00
2018-11-25T03:06:55.767Z,0.00
2018-11-25T03:07:55.418Z,0.00
2018-11-25T03:08:55.315Z,0.00
2018-11-25T03:11:07.796Z,0.00
2018-11-25T03:12:07.628Z,0.00
2018-11-25T03:13:08.456Z,0.00
2018-11-25T03:14:07.745Z,0.00
2018-11-25T03:15:07.343Z,0.00
2018-11-25T03:16:07.556Z,0.00
2018-11-25T03:17:07.768Z,0.00
2018-11-25T03:18:07.776Z,0.00
2018-11-25T03:19:07.590Z,0.00
2018-11-25T03:20:07.481Z,0.00
2018-11-25T03:21:07.387Z,0.00
2018-11-25T03:22:07.286Z,0.00
2018-11-25T03:23:07.775Z,0.00
2018-11-25T03:24:07.404Z,0.00
2018-11-25T03:25:07.309Z,0.00
2018-11-25T03:27:19.713Z,0.00
2018-11-25T03:28:19.618Z,0.00
2018-11-25T03:29:19.523Z,0.00
2018-11-25T03:30:19.737Z,0.00
2018-11-25T03:31:19.335Z,0.00
2018-11-25T03:32:19.549Z,0.00
2018-11-25T03:33:19.788Z,0.00
2018-11-25T03:34:19.370Z,0.00
2018-11-25T03:35:19.575Z,0.00
2018-11-25T03:36:19.485Z,0.00
2018-11-25T03:37:19.389Z,0.00
2018-11-25T03:38:19.600Z,0.00
2018-11-25T03:39:19.505Z,0.00
2018-11-25T03:40:19.413Z,0.00
2018-11-25T03:42:42.610Z,0.00
2018-11-25T03:43:42.790Z,0.00
2018-11-25T03:44:42.371Z,0.00
2018-11-25T03:45:42.296Z,0.00
2018-11-25T03:46:42.507Z,0.00
2018-11-25T03:47:42.416Z,0.00
2018-11-25T03:48:42.322Z,0.00
2018-11-25T03:49:42.817Z,0.00
2018-11-25T03:50:42.453Z,0.00
2018-11-25T03:51:42.336Z,0.00
2018-11-25T03:52:42.241Z,0.00
2018-11-25T03:53:42.142Z,0.00
2018-11-25T03:54:42.345Z,0.00
2018-11-25T03:55:42.558Z,0.00
2018-11-25T03:57:54.822Z,0.00
2018-11-25T03:58:54.567Z,0.00
2018-11-25T03:59:54.462Z,0.00
2018-11-25T04:00:54.678Z,0.00
2018-11-25T04:01:54.286Z,0.00
2018-11-25T04:02:54.804Z,0.00
2018-11-25T04:03:54.717Z,0.00
2018-11-25T04:04:54.295Z,0.00
2018-11-25T04:05:54.505Z,0.00
2018-11-25T04:06:54.411Z,0.00
2018-11-25T04:07:54.639Z,0.00
2018-11-25T04:08:54.219Z,0.00
2018-11-25T04:09:54.738Z,0.00
2018-11-25T04:10:54.335Z,0.00
2018-11-25T04:13:07.834Z,0.00
2018-11-25T04:14:07.575Z,0.00
2018-11-25T04:15:07.486Z,0.00
2018-11-25T04:16:07.394Z,0.00
2018-11-25T04:17:07.286Z,0.00
2018-11-25T04:18:07.813Z,0.00
2018-11-25T04:19:07.414Z,0.00
2018-11-25T04:20:07.623Z,0.00
2018-11-25T04:21:07.529Z,0.00
2018-11-25T04:22:07.445Z,0.00
2018-11-25T04:23:07.338Z,0.00
2018-11-25T04:24:07.246Z,0.00
2018-11-25T04:25:07.454Z,0.00
2018-11-25T04:26:07.671Z,0.00
2018-11-25T04:28:19.868Z,0.00
2018-11-25T04:29:19.666Z,0.00
2018-11-25T04:30:19.855Z,0.00
2018-11-25T04:31:19.778Z,0.00
2018-11-25T04:32:19.690Z,0.00
2018-11-25T04:33:19.588Z,0.00
2018-11-25T04:34:19.856Z,0.00
2018-11-25T04:35:19.870Z,0.00
2018-11-25T04:36:19.616Z,0.00
2018-11-25T04:37:19.852Z,0.00
2018-11-25T04:38:19.726Z,0.00
2018-11-25T04:39:19.854Z,0.00
2018-11-25T04:40:19.856Z,0.00
2018-11-25T04:41:19.753Z,0.00
2018-11-25T04:43:33.864Z,0.00
2018-11-25T04:44:31.901Z,0.00
2018-11-25T04:45:31.656Z,0.00
2018-11-25T04:46:32.180Z,0.00
2018-11-25T04:47:31.773Z,0.00
2018-11-25T04:48:31.676Z,0.00
2018-11-25T04:49:31.864Z,0.00
2018-11-25T04:50:31.798Z,0.00
2018-11-25T04:51:31.703Z,0.00
2018-11-25T04:52:31.609Z,0.00
2018-11-25T04:53:31.821Z,0.00
2018-11-25T04:54:31.731Z,0.00
2018-11-25T04:55:31.901Z,0.00
2018-11-25T04:56:31.540Z,0.00
2018-11-25T04:58:43.911Z,0.00
2018-11-25T04:59:43.890Z,0.00
2018-11-25T05:00:43.875Z,0.00
2018-11-25T05:01:43.665Z,0.00
2018-11-25T05:02:43.883Z,0.00
2018-11-25T05:03:43.779Z,0.00
2018-11-25T05:04:43.881Z,0.00
2018-11-25T05:05:43.895Z,0.00
2018-11-25T05:06:43.793Z,0.00
2018-11-25T05:07:43.700Z,0.00
2018-11-25T05:08:43.889Z,0.00
2018-11-25T05:09:43.821Z,0.00
2018-11-25T05:10:43.733Z,0.00
2018-11-25T05:11:43.637Z,0.00
2018-11-25T05:12:43.534Z,0.00
2018-11-25T05:14:56.903Z,0.00
2018-11-25T05:15:56.900Z,0.00
2018-11-25T05:16:56.675Z,0.00
2018-11-25T05:17:56.587Z,0.00
2018-11-25T05:18:56.479Z,0.00
2018-11-25T05:19:56.695Z,0.00
2018-11-25T05:20:56.895Z,0.00
2018-11-25T05:21:56.443Z,0.00
2018-11-25T05:22:56.719Z,0.00
2018-11-25T05:23:56.634Z,0.00
2018-11-25T05:24:56.538Z,0.00
2018-11-25T05:25:56.442Z,0.00
2018-11-25T05:26:56.913Z,0.00
2018-11-25T05:27:56.543Z,0.00
2018-11-25T05:30:08.640Z,0.00
2018-11-25T05:31:08.559Z,0.00
2018-11-25T05:32:08.449Z,0.00
2018-11-25T05:33:08.358Z,0.00
2018-11-25T05:34:08.567Z,0.00
2018-11-25T05:35:08.472Z,0.00
2018-11-25T05:36:08.922Z,0.00
2018-11-25T05:37:08.282Z,0.00
2018-11-25T05:38:08.491Z,0.00
2018-11-25T05:39:08.412Z,0.00
2018-11-25T05:40:08.307Z,0.00
2018-11-25T05:41:08.170Z,0.00
2018-11-25T05:42:08.728Z,0.00
2018-11-25T05:43:08.326Z,0.00
2018-11-25T05:45:19.917Z,0.00
2018-11-25T05:46:19.717Z,0.00
2018-11-25T05:47:19.923Z,0.00
2018-11-25T05:48:20.758Z,0.00
2018-11-25T05:49:19.745Z,0.00
2018-11-25T05:50:19.925Z,0.00
2018-11-25T05:51:19.929Z,0.00
2018-11-25T05:52:19.925Z,0.00
2018-11-25T05:53:19.933Z,0.00
2018-11-25T05:54:19.914Z,0.00
2018-11-25T05:55:19.967Z,0.00
2018-11-25T05:56:19.686Z,0.00
2018-11-25T05:57:19.900Z,0.00
2018-11-25T05:58:19.974Z,0.00
2018-11-25T06:00:29.936Z,0.00
2018-11-25T06:01:29.939Z,0.00
2018-11-25T06:02:29.869Z,0.00
2018-11-25T06:03:29.777Z,0.00
2018-11-25T06:04:29.676Z,0.00
2018-11-25T06:05:29.938Z,0.00
2018-11-25T06:06:29.802Z,0.00
2018-11-25T06:07:29.702Z,0.00
2018-11-25T06:08:29.909Z,0.00
2018-11-25T06:09:29.816Z,0.00
2018-11-25T06:10:29.733Z,0.00
2018-11-25T06:11:29.933Z,0.00
2018-11-25T06:12:30.534Z,0.00
2018-11-25T06:13:29.947Z,0.00
2018-11-25T06:15:39.987Z,0.00
2018-11-25T06:16:39.906Z,0.00
2018-11-25T06:17:39.808Z,0.00
2018-11-25T06:18:39.971Z,0.00
2018-11-25T06:19:39.933Z,0.00
2018-11-25T06:20:39.840Z,0.00
2018-11-25T06:21:39.997Z,0.00
2018-11-25T06:22:39.984Z,0.00
2018-11-25T06:23:39.854Z,0.00
2018-11-25T06:24:39.808Z,0.00
2018-11-25T06:25:39.966Z,0.00
2018-11-25T06:26:39.899Z,0.00
2018-11-25T06:27:39.963Z,0.00
2018-11-25T06:28:39.693Z,0.00
2018-11-25T06:30:51.000Z,0.00
2018-11-25T06:31:50.998Z,0.00
2018-11-25T06:32:51.320Z,0.00
2018-11-25T06:33:50.893Z,0.00
2018-11-25T06:34:50.803Z,0.00
2018-11-25T06:35:50.974Z,0.00
2018-11-25T06:36:50.914Z,0.00
2018-11-25T06:37:50.822Z,0.00
2018-11-25T06:38:51.006Z,0.00
2018-11-25T06:39:50.975Z,0.00
2018-11-25T06:40:50.976Z,0.00
2018-11-25T06:41:52.589Z,0.00
2018-11-25T06:42:50.956Z,0.00
2018-11-25T06:43:50.977Z,0.00
2018-11-25T06:44:50.998Z,0.00
2018-11-25T06:47:02.011Z,0.00
2018-11-25T06:48:01.846Z,0.00
2018-11-25T06:49:01.991Z,0.00
2018-11-25T06:50:01.965Z,0.00
2018-11-25T06:51:01.993Z,0.00
2018-11-25T06:52:01.999Z,0.00
2018-11-25T06:53:02.005Z,0.00
2018-11-25T06:54:01.886Z,0.00
2018-11-25T06:55:01.790Z,0.00
2018-11-25T06:56:01.993Z,0.00
2018-11-25T06:57:02.034Z,0.00
2018-11-25T06:58:02.004Z,0.00
2018-11-25T06:59:02.005Z,0.00
2018-11-25T07:00:02.014Z,0.00
2018-11-25T07:02:12.002Z,0.00
2018-11-25T07:03:12.003Z,0.00
2018-11-25T07:04:12.005Z,0.00
2018-11-25T07:05:11.914Z,0.00
2018-11-25T07:06:11.805Z,0.00
2018-11-25T07:07:12.001Z,0.00
2018-11-25T07:08:12.055Z,0.00
2018-11-25T07:09:11.837Z,0.00
2018-11-25T07:10:12.017Z,0.00
2018-11-25T07:11:11.957Z,0.00
2018-11-25T07:12:12.069Z,0.00
2018-11-25T07:13:11.770Z,0.00
2018-11-25T07:14:11.981Z,0.00
2018-11-25T07:15:11.887Z,0.00
2018-11-25T07:17:22.110Z,0.00
2018-11-25T07:18:22.980Z,0.00
2018-11-25T07:19:21.961Z,0.00
2018-11-25T07:20:21.863Z,0.00
2018-11-25T07:21:22.021Z,0.00
2018-11-25T07:22:21.964Z,0.00
2018-11-25T07:23:22.025Z,0.00
2018-11-25T07:24:21.775Z,0.00
2018-11-25T07:25:21.984Z,0.00
2018-11-25T07:26:21.906Z,0.00
2018-11-25T07:27:22.734Z,0.00
2018-11-25T07:28:22.011Z,0.00
2018-11-25T07:29:21.927Z,0.00
2018-11-25T07:30:21.813Z,0.00
2018-11-25T07:32:43.467Z,0.00
2018-11-25T07:33:43.042Z,0.00
2018-11-25T07:34:43.058Z,0.00
2018-11-25T07:35:42.868Z,0.00
2018-11-25T07:36:43.072Z,0.00
2018-11-25T07:37:42.970Z,0.00
2018-11-25T07:38:42.868Z,0.00
2018-11-25T07:39:43.037Z,0.00
2018-11-25T07:40:43.049Z,0.00
2018-11-25T07:41:42.901Z,0.00
2018-11-25T07:42:42.811Z,0.00
2018-11-25T07:43:43.024Z,0.00
2018-11-25T07:44:42.925Z,0.00
2018-11-25T07:45:42.823Z,0.00
2018-11-25T07:47:53.395Z,0.00
2018-11-25T07:48:53.045Z,0.00
2018-11-25T07:49:53.046Z,0.00
2018-11-25T07:50:53.060Z,0.00
2018-11-25T07:51:53.078Z,0.00
2018-11-25T07:52:52.918Z,0.00
2018-11-25T07:53:53.050Z,0.00
2018-11-25T07:54:53.142Z,0.00
2018-11-25T07:55:52.939Z,0.00
2018-11-25T07:56:52.851Z,0.00
2018-11-25T07:57:53.115Z,0.00
2018-11-25T07:58:52.952Z,0.00
2018-11-25T07:59:52.881Z,0.00
2018-11-25T08:00:52.763Z,0.00
2018-11-25T08:03:03.065Z,0.00
2018-11-25T08:04:02.930Z,0.00
2018-11-25T08:05:03.149Z,0.00
2018-11-25T08:06:03.059Z,0.00
2018-11-25T08:07:02.953Z,0.00
2018-11-25T08:08:03.073Z,0.00
2018-11-25T08:14:50.140Z,78.75
2018-11-25T08:15:50.074Z,78.75
2018-11-25T08:18:00.097Z,90.00
2018-11-25T08:18:59.964Z,90.00
2018-11-25T08:20:00.085Z,84.38
2018-11-25T08:20:59.910Z,78.75
2018-11-25T08:21:59.979Z,78.75
2018-11-25T08:22:59.896Z,73.12
2018-11-25T08:24:00.048Z,73.12
2018-11-25T08:25:00.021Z,78.75
2018-11-25T08:25:59.924Z,73.12
2018-11-25T08:27:00.084Z,73.12
2018-11-25T08:28:00.023Z,61.88
2018-11-25T08:28:59.930Z,56.25
2018-11-25T08:30:00.096Z,56.25
2018-11-25T08:31:06.191Z,45.00
2018-11-25T08:32:01.107Z,56.25
2018-11-25T08:34:12.152Z,61.88
2018-11-25T08:35:11.956Z,61.88
2018-11-25T08:36:12.098Z,61.88
2018-11-25T08:37:12.107Z,61.88
2018-11-25T08:38:12.104Z,61.88
2018-11-25T08:39:12.103Z,61.88
2018-11-25T08:40:12.130Z,61.88
2018-11-25T08:41:12.620Z,61.88
2018-11-25T08:42:11.918Z,61.88
2018-11-25T08:43:11.836Z,67.50
2018-11-25T08:44:12.031Z,67.50
2018-11-25T08:45:11.949Z,73.12
2018-11-25T08:46:12.163Z,78.75
2018-11-25T08:47:12.112Z,84.38
2018-11-25T08:49:24.120Z,101.25
2018-11-25T08:50:22.115Z,112.50
2018-11-25T08:51:22.148Z,112.50
2018-11-25T08:52:22.124Z,129.38
2018-11-25T08:53:23.135Z,140.62
2018-11-25T08:54:22.162Z,151.88
2018-11-25T08:55:23.118Z,163.12
2018-11-25T08:56:22.122Z,174.38
2018-11-25T08:57:22.125Z,185.62
2018-11-25T08:58:22.068Z,185.62
2018-11-25T08:59:21.969Z,174.38
2018-11-25T09:00:23.106Z,157.50
2018-11-25T09:01:22.189Z,151.88
2018-11-25T09:03:45.243Z,135.00
2018-11-25T09:04:44.533Z,135.00
2018-11-25T09:05:44.413Z,135.00
2018-11-25T09:06:44.360Z,135.00
2018-11-25T09:07:44.563Z,135.00
2018-11-25T09:08:45.383Z,135.00
2018-11-25T09:09:45.211Z,129.38
2018-11-25T09:10:44.259Z,129.38
2018-11-25T09:11:44.484Z,123.75
2018-11-25T09:12:44.187Z,118.12
2018-11-25T09:13:44.304Z,118.12
2018-11-25T09:14:44.573Z,118.12
2018-11-25T09:15:44.207Z,112.50
2018-11-25T09:16:44.189Z,112.50
2018-11-25T09:19:08.085Z,112.50
2018-11-25T09:20:07.987Z,118.12
2018-11-25T09:21:08.185Z,129.38
2018-11-25T09:22:09.029Z,135.00
2018-11-25T09:23:08.226Z,135.00
2018-11-25T09:24:08.847Z,140.62
2018-11-25T09:25:08.143Z,151.88
2018-11-25T09:26:08.367Z,163.12
2018-11-25T09:27:08.194Z,174.38
2018-11-25T09:28:07.845Z,196.88
2018-11-25T09:29:08.180Z,208.12
2018-11-25T09:30:08.281Z,208.12
2018-11-25T09:31:07.865Z,219.38
2018-11-25T09:32:08.082Z,230.62
